| time (UTC) | temp F | wind direction | speed MPH | gust MPH | rain 1hr in | rain 24hr in | rain mn in | humidity % | barometer mb |
| 20260510065704 | 51 | 19 | 3.0 | 6.0 | 0.00 | 0.29 | 0.00 | 85 | 1010.2 |
| 20260510063704 | 52 | 11 | 5.0 | 8.0 | 0.00 | 0.29 | 0.00 | 88 | 1010.2 |
| 20260510063204 | 52 | 0 | 6.0 | 8.0 | 0.00 | 0.29 | 0.00 | 89 | 1010.2 |
| 20260510062704 | 52 | 9 | 3.0 | 7.0 | 0.00 | 0.29 | 0.00 | 88 | 1010.2 |
| 20260510062204 | 52 | 329 | 3.0 | 7.0 | 0.00 | 0.29 | 0.00 | 88 | 1010.2 |
| 20260510061704 | 53 | 9 | 3.0 | 7.0 | 0.00 | 0.29 | 0.00 | 89 | 1010.2 |
| 20260510060704 | 53 | 354 | 3.0 | 9.0 | 0.00 | 0.29 | 0.00 | 89 | 1009.8 |
| 20260510060204 | 54 | 13 | 4.0 | 9.0 | 0.00 | 0.29 | 0.00 | 88 | 1009.8 |
| 20260510055704 | 54 | 5 | 5.0 | 9.0 | 0.00 | 0.29 | 0.00 | 88 | 1009.8 |
| 20260510055204 | 55 | 312 | 3.0 | 6.0 | 0.00 | 0.29 | 0.00 | 89 | 1009.8 |
| 20260510054704 | 55 | 61 | 2.0 | 7.0 | 0.00 | 0.29 | 0.00 | 89 | 1009.8 |
| 20260510054204 | 55 | 123 | 1.0 | 8.0 | 0.00 | 0.29 | 0.00 | 89 | 1009.8 |
| 20260510053704 | 56 | 337 | 3.0 | 8.0 | 0.00 | 0.29 | 0.00 | 89 | 1009.8 |
| 20260510053203 | 56 | 1 | 4.0 | 9.0 | 0.00 | 0.29 | 0.00 | 91 | 1009.5 |
| 20260510052704 | 56 | 334 | 4.0 | 9.0 | 0.00 | 0.29 | 0.00 | 91 | 1009.5 |
| 20260510052204 | 56 | 298 | 4.0 | 9.0 | 0.00 | 0.29 | 0.00 | 92 | 1009.5 |
| 20260510051704 | 56 | 325 | 3.0 | 8.0 | 0.00 | 0.29 | 0.00 | 93 | 1009.1 |
| 20260510051204 | 56 | 280 | 3.0 | 10.0 | 0.00 | 0.29 | 0.00 | 93 | 1009.1 |
| 20260510050704 | 56 | 253 | 1.0 | 10.0 | 0.00 | 0.29 | 0.00 | 94 | 1009.1 |
| 20260510050204 | 55 | 266 | 6.0 | 10.0 | 0.00 | 0.29 | 0.00 | 94 | 1008.8 |
| 20260510045703 | 55 | 322 | 5.0 | 8.0 | 0.00 | 0.29 | 0.00 | 93 | 1008.1 |
| 20260510045204 | 56 | 238 | 3.0 | 6.0 | 0.00 | 0.29 | 0.00 | 93 | 1007.8 |
| 20260510044704 | 55 | 216 | 3.0 | 6.0 | 0.00 | 0.29 | 0.00 | 93 | 1007.8 |
| 20260510044204 | 55 | 209 | 4.0 | 6.0 | 0.00 | 0.29 | 0.00 | 93 | 1007.8 |
| 20260510043204 | 55 | 123 | 0.0 | 0.0 | 0.00 | 0.30 | 0.00 | 92 | 1007.5 |
| 20260510041204 | 56 | 235 | 2.0 | 7.0 | 0.00 | 0.32 | 0.00 | 92 | 1007.5 |
| 20260510040704 | 56 | 273 | 5.0 | 7.0 | 0.00 | 0.32 | 0.00 | 92 | 1007.5 |
| 20260510040204 | 56 | 190 | 3.0 | 7.0 | 0.00 | 0.32 | 0.00 | 92 | 1007.8 |
| 20260510035704 | 56 | 321 | 3.0 | 7.0 | 0.00 | 0.32 | 0.32 | 92 | 1007.8 |
| 20260510035204 | 57 | 233 | 2.0 | 8.0 | 0.00 | 0.32 | 0.32 | 91 | 1007.8 |
| 20260510034703 | 57 | 253 | 3.0 | 8.0 | 0.00 | 0.33 | 0.32 | 90 | 1007.8 |
| 20260510033704 | 57 | 231 | 5.0 | 9.0 | 0.00 | 0.33 | 0.32 | 90 | 1007.8 |
| 20260510033204 | 57 | 251 | 6.0 | 9.0 | 0.00 | 0.33 | 0.32 | 90 | 1007.8 |
| 20260510032704 | 56 | 235 | 5.0 | 8.0 | 0.00 | 0.33 | 0.32 | 90 | 1007.8 |
| 20260510032204 | 56 | 250 | 5.0 | 9.0 | 0.00 | 0.33 | 0.32 | 92 | 1007.8 |
| 20260510031203 | 55 | 240 | 5.0 | 9.0 | 0.00 | 0.33 | 0.32 | 94 | 1007.5 |
| 20260510030703 | 55 | 291 | 0.0 | 5.0 | 0.00 | 0.33 | 0.32 | 94 | 1007.5 |
| 20260510030204 | 55 | 160 | 0.0 | 6.0 | 0.00 | 0.33 | 0.32 | 95 | 1007.5 |
| 20260510025704 | 55 | 231 | 0.0 | 8.0 | 0.00 | 0.33 | 0.32 | 95 | 1007.5 |
| 20260510025204 | 56 | 211 | 2.0 | 8.0 | 0.00 | 0.33 | 0.32 | 95 | 1007.8 |
| 20260510024705 | 56 | 235 | 6.0 | 9.0 | 0.00 | 0.33 | 0.32 | 96 | 1008.1 |
| 20260510023704 | 56 | 225 | 5.0 | 9.0 | 0.00 | 0.33 | 0.32 | 97 | 1008.1 |
| 20260510023204 | 55 | 183 | 3.0 | 7.0 | 0.00 | 0.33 | 0.32 | 97 | 1007.8 |
| 20260510022704 | 55 | 175 | 0.0 | 5.0 | 0.00 | 0.34 | 0.32 | 97 | 1007.5 |
| 20260510022204 | 55 | 259 | 2.0 | 5.0 | 0.00 | 0.34 | 0.32 | 98 | 1007.1 |
| 20260510021704 | 55 | 264 | 1.0 | 5.0 | 0.00 | 0.34 | 0.32 | 98 | 1007.1 |
| 20260510020704 | 55 | 100 | 0.0 | 3.0 | 0.00 | 0.34 | 0.32 | 98 | 1007.5 |
| 20260510020204 | 55 | 227 | 3.0 | 5.0 | 0.00 | 0.34 | 0.32 | 98 | 1007.5 |
| 20260510015704 | 55 | 169 | 0.0 | 5.0 | 0.00 | 0.34 | 0.32 | 98 | 1007.2 |
| 20260510015204 | 55 | 173 | 2.0 | 5.0 | 0.00 | 0.34 | 0.32 | 98 | 1007.1 |
| 20260510014704 | 54 | 245 | 0.0 | 0.0 | 0.00 | 0.34 | 0.32 | 98 | 1007.5 |
| 20260510014204 | 55 | 162 | 0.0 | 0.0 | 0.00 | 0.34 | 0.32 | 98 | 1007.5 |
| 20260510013704 | 55 | 177 | 0.0 | 0.0 | 0.00 | 0.34 | 0.32 | 98 | 1007.1 |
| 20260510013204 | 55 | 231 | 0.0 | 0.0 | 0.00 | 0.34 | 0.32 | 98 | 1007.4 |
| 20260510012705 | 55 | 226 | 0.0 | 0.0 | 0.00 | 0.34 | 0.32 | 98 | 1007.1 |
| 20260510012204 | 55 | 160 | 0.0 | 0.0 | 0.00 | 0.34 | 0.32 | 98 | 1007.1 |
| 20260510011705 | 55 | 194 | 0.0 | 3.0 | 0.00 | 0.34 | 0.32 | 98 | 1007.1 |
| 20260510011204 | 55 | 148 | 0.0 | 5.0 | 0.00 | 0.34 | 0.32 | 97 | 1007.1 |
| 20260510010704 | 55 | 260 | 2.0 | 6.0 | 0.00 | 0.34 | 0.32 | 97 | 1007.1 |
| 20260510010204 | 55 | 189 | 3.0 | 6.0 | 0.00 | 0.34 | 0.32 | 97 | 1006.8 |
| 20260510005704 | 55 | 253 | 3.0 | 6.0 | 0.00 | 0.34 | 0.32 | 98 | 1006.8 |
| 20260510005205 | 55 | 194 | 0.0 | 5.0 | 0.00 | 0.34 | 0.32 | 98 | 1007.1 |
| 20260510004704 | 55 | 249 | 2.0 | 5.0 | 0.00 | 0.35 | 0.32 | 98 | 1007.1 |
| 20260510004204 | 56 | 219 | 1.0 | 5.0 | 0.01 | 0.35 | 0.32 | 98 | 1006.8 |
| 20260510003704 | 56 | 257 | 4.0 | 6.0 | 0.01 | 0.35 | 0.32 | 99 | 1007.1 |
| 20260510003205 | 56 | 231 | 3.0 | 6.0 | 0.01 | 0.35 | 0.32 | 99 | 1006.8 |
| 20260510002704 | 56 | 273 | 3.0 | 6.0 | 0.03 | 0.36 | 0.32 | 99 | 1006.8 |
| 20260510002204 | 56 | 226 | 2.0 | 5.0 | 0.04 | 0.36 | 0.32 | 99 | 1006.8 |
| 20260510001705 | 56 | 250 | 0.0 | 2.0 | 0.05 | 0.36 | 0.32 | 99 | 1006.8 |
| 20260510000204 | 55 | 253 | 0.0 | 7.0 | 0.09 | 0.37 | 0.32 | 99 | 1006.8 |
| 20260509235705 | 55 | 253 | 5.0 | 8.0 | 0.17 | 0.37 | 0.32 | 99 | 1006.8 |
| 20260509235204 | 55 | 252 | 5.0 | 8.0 | 0.25 | 0.38 | 0.32 | 99 | 1006.8 |
| 20260509234704 | 55 | 273 | 5.0 | 8.0 | 0.28 | 0.38 | 0.32 | 99 | 1006.8 |
| 20260509233705 | 55 | 232 | 3.0 | 9.0 | 0.27 | 0.38 | 0.31 | 99 | 1006.8 |
| 20260509233204 | 55 | 302 | 3.0 | 9.0 | 0.27 | 0.39 | 0.31 | 99 | 1007.4 |
| 20260509231704 | 55 | 247 | 6.0 | 12.0 | 0.23 | 0.36 | 0.27 | 99 | 1006.4 |
| 20260509230704 | 55 | 320 | 7.0 | 23.0 | 0.21 | 0.35 | 0.25 | 98 | 1006.8 |
| 20260509225204 | 63 | 75 | 14.0 | 18.0 | 0.03 | 0.18 | 0.07 | 74 | 1004.4 |
| 20260509224204 | 68 | 237 | 6.0 | 12.0 | 0.00 | 0.16 | 0.04 | 59 | 1004.1 |
| 20260509223704 | 68 | 302 | 7.0 | 12.0 | 0.00 | 0.17 | 0.04 | 59 | 1003.7 |
| 20260509223204 | 68 | 248 | 6.0 | 10.0 | 0.00 | 0.17 | 0.04 | 59 | 1004.0 |
| 20260509222704 | 68 | 147 | 5.0 | 10.0 | 0.00 | 0.18 | 0.04 | 58 | 1004.4 |
| 20260509221704 | 69 | 209 | 6.0 | 13.0 | 0.00 | 0.18 | 0.04 | 58 | 1004.4 |
| 20260509221204 | 69 | 236 | 9.0 | 13.0 | 0.00 | 0.20 | 0.04 | 58 | 1004.1 |
| 20260509220704 | 69 | 191 | 7.0 | 13.0 | 0.00 | 0.20 | 0.04 | 58 | 1004.4 |
| 20260509220205 | 69 | 162 | 9.0 | 13.0 | 0.00 | 0.20 | 0.04 | 58 | 1004.1 |
| 20260509215704 | 69 | 280 | 7.0 | 21.0 | 0.00 | 0.20 | 0.04 | 57 | 1004.1 |
| 20260509215204 | 70 | 267 | 8.0 | 21.0 | 0.00 | 0.20 | 0.04 | 57 | 1004.1 |
| 20260509214704 | 70 | 196 | 10.0 | 21.0 | 0.00 | 0.20 | 0.04 | 57 | 1004.1 |
| 20260509213204 | 70 | 223 | 7.0 | 14.0 | 0.00 | 0.20 | 0.04 | 59 | 1004.1 |
| 20260509212704 | 71 | 254 | 8.0 | 13.0 | 0.00 | 0.20 | 0.04 | 58 | 1004.1 |
| 20260509211704 | 70 | 250 | 9.0 | 18.0 | 0.00 | 0.20 | 0.04 | 57 | 1004.1 |
| 20260509211204 | 70 | 181 | 8.0 | 18.0 | 0.00 | 0.20 | 0.04 | 59 | 1004.1 |
| 20260509210704 | 70 | 267 | 6.0 | 18.0 | 0.00 | 0.20 | 0.04 | 60 | 1004.4 |
| 20260509210204 | 70 | 163 | 6.0 | 18.0 | 0.00 | 0.20 | 0.04 | 60 | 1004.4 |
| 20260509205704 | 70 | 226 | 12.0 | 20.0 | 0.00 | 0.20 | 0.04 | 60 | 1004.4 |
| 20260509205204 | 70 | 232 | 9.0 | 20.0 | 0.00 | 0.20 | 0.04 | 60 | 1004.4 |
| 20260509204705 | 70 | 203 | 6.0 | 20.0 | 0.00 | 0.20 | 0.04 | 60 | 1004.7 |
| 20260509203705 | 70 | 270 | 10.0 | 18.0 | 0.00 | 0.20 | 0.04 | 59 | 1004.7 |
| 20260509203204 | 69 | 272 | 7.0 | 16.0 | 0.00 | 0.20 | 0.04 | 59 | 1004.7 |
| 20260509202704 | 69 | 250 | 9.0 | 16.0 | 0.00 | 0.20 | 0.04 | 60 | 1005.1 |
| 20260509202204 | 71 | 220 | 8.0 | 16.0 | 0.00 | 0.20 | 0.04 | 57 | 1005.1 |
| 20260509201205 | 71 | 178 | 10.0 | 14.0 | 0.00 | 0.20 | 0.04 | 54 | 1005.1 |
| 20260509200704 | 70 | 202 | 9.0 | 14.0 | 0.00 | 0.20 | 0.04 | 56 | 1005.1 |
| 20260509200203 | 71 | 222 | 8.0 | 14.0 | 0.00 | 0.20 | 0.04 | 54 | 1005.1 |
| 20260509195704 | 71 | 251 | 10.0 | 14.0 | 0.00 | 0.20 | 0.04 | 58 | 1005.1 |
| 20260509195204 | 72 | 206 | 7.0 | 16.0 | 0.00 | 0.20 | 0.04 | 57 | 1005.1 |
| 20260509194704 | 71 | 247 | 6.0 | 16.0 | 0.00 | 0.20 | 0.04 | 60 | 1005.4 |
| 20260509194204 | 71 | 253 | 10.0 | 16.0 | 0.00 | 0.20 | 0.04 | 60 | 1005.4 |
| 20260509193704 | 70 | 265 | 5.0 | 16.0 | 0.00 | 0.20 | 0.04 | 60 | 1005.4 |
| 20260509193204 | 70 | 304 | 7.0 | 16.0 | 0.00 | 0.20 | 0.04 | 59 | 1005.4 |
| 20260509192704 | 69 | 231 | 12.0 | 15.0 | 0.00 | 0.20 | 0.04 | 61 | 1005.8 |
| 20260509192204 | 69 | 275 | 7.0 | 15.0 | 0.00 | 0.20 | 0.04 | 62 | 1005.8 |
| 20260509191204 | 68 | 228 | 6.0 | 15.0 | 0.00 | 0.20 | 0.04 | 63 | 1006.1 |
| 20260509190704 | 67 | 249 | 9.0 | 15.0 | 0.00 | 0.20 | 0.04 | 61 | 1006.1 |
| 20260509190204 | 68 | 296 | 9.0 | 13.0 | 0.00 | 0.20 | 0.04 | 63 | 1006.1 |
| 20260509185704 | 68 | 256 | 6.0 | 13.0 | 0.00 | 0.20 | 0.04 | 62 | 1006.1 |
| 20260509185204 | 67 | 267 | 8.0 | 13.0 | 0.00 | 0.20 | 0.04 | 63 | 1006.1 |
| 20260509184704 | 68 | 201 | 6.0 | 12.0 | 0.00 | 0.20 | 0.04 | 64 | 1006.4 |
| 20260509184204 | 67 | 261 | 6.0 | 14.0 | 0.00 | 0.20 | 0.04 | 64 | 1006.1 |
| 20260509183704 | 67 | 248 | 8.0 | 18.0 | 0.00 | 0.20 | 0.04 | 61 | 1006.4 |
| 20260509183203 | 68 | 197 | 10.0 | 18.0 | 0.00 | 0.20 | 0.04 | 60 | 1006.2 |
| 20260509182704 | 69 | 196 | 9.0 | 18.0 | 0.00 | 0.20 | 0.04 | 58 | 1006.1 |
| 20260509181704 | 70 | 189 | 10.0 | 17.0 | 0.00 | 0.20 | 0.04 | 60 | 1006.1 |
| 20260509180704 | 68 | 192 | 10.0 | 14.0 | 0.00 | 0.20 | 0.04 | 64 | 1006.1 |
| 20260509180204 | 67 | 244 | 7.0 | 14.0 | 0.00 | 0.20 | 0.04 | 65 | 1006.4 |
| 20260509175704 | 67 | 225 | 9.0 | 15.0 | 0.00 | 0.20 | 0.04 | 63 | 1006.4 |
| 20260509175204 | 66 | 209 | 6.0 | 15.0 | 0.00 | 0.20 | 0.04 | 64 | 1006.4 |
| 20260509174704 | 67 | 237 | 8.0 | 15.0 | 0.00 | 0.20 | 0.04 | 64 | 1006.4 |
| 20260509174204 | 67 | 271 | 6.0 | 15.0 | 0.00 | 0.20 | 0.04 | 63 | 1006.4 |
| 20260509173704 | 67 | 260 | 9.0 | 15.0 | 0.00 | 0.20 | 0.04 | 64 | 1006.4 |
| 20260509172704 | 67 | 156 | 7.0 | 9.0 | 0.00 | 0.20 | 0.04 | 65 | 1006.4 |
| 20260509172204 | 66 | 226 | 3.0 | 9.0 | 0.00 | 0.21 | 0.04 | 68 | 1006.4 |
| 20260509171704 | 65 | 217 | 9.0 | 10.0 | 0.00 | 0.21 | 0.04 | 68 | 1006.4 |
| 20260509171204 | 65 | 260 | 7.0 | 10.0 | 0.00 | 0.21 | 0.04 | 68 | 1006.4 |
| 20260509170704 | 66 | 233 | 4.0 | 10.0 | 0.00 | 0.21 | 0.04 | 68 | 1006.4 |
| 20260509170204 | 65 | 213 | 6.0 | 12.0 | 0.00 | 0.21 | 0.04 | 69 | 1006.4 |
| 20260509165704 | 66 | 204 | 7.0 | 12.0 | 0.00 | 0.21 | 0.04 | 68 | 1006.4 |
| 20260509165204 | 65 | 196 | 9.0 | 12.0 | 0.00 | 0.21 | 0.04 | 70 | 1006.1 |
| 20260509164705 | 65 | 182 | 10.0 | 12.0 | 0.00 | 0.21 | 0.04 | 68 | 1006.4 |
| 20260509164205 | 64 | 117 | 7.0 | 12.0 | 0.00 | 0.21 | 0.04 | 73 | 1006.4 |
| 20260509163705 | 63 | 246 | 6.0 | 12.0 | 0.00 | 0.21 | 0.04 | 70 | 1006.4 |
| 20260509162705 | 64 | 212 | 9.0 | 12.0 | 0.00 | 0.21 | 0.04 | 68 | 1006.8 |
| 20260509162205 | 65 | 245 | 5.0 | 13.0 | 0.00 | 0.21 | 0.04 | 72 | 1006.8 |
| 20260509161704 | 65 | 255 | 6.0 | 13.0 | 0.00 | 0.21 | 0.04 | 69 | 1006.8 |
| 20260509161205 | 64 | 153 | 6.0 | 13.0 | 0.00 | 0.21 | 0.04 | 73 | 1007.1 |
| 20260509160704 | 64 | 209 | 7.0 | 12.0 | 0.00 | 0.21 | 0.04 | 75 | 1007.1 |
| 20260509160205 | 64 | 106 | 5.0 | 10.0 | 0.00 | 0.21 | 0.04 | 75 | 1007.1 |
| 20260509155704 | 62 | 285 | 6.0 | 10.0 | 0.00 | 0.21 | 0.04 | 76 | 1007.1 |
| 20260509155205 | 61 | 268 | 8.0 | 10.0 | 0.00 | 0.21 | 0.04 | 80 | 1007.1 |
| 20260509154705 | 60 | 282 | 5.0 | 10.0 | 0.00 | 0.21 | 0.04 | 81 | 1007.1 |
| 20260509154204 | 61 | 245 | 6.0 | 10.0 | 0.00 | 0.21 | 0.04 | 80 | 1007.1 |
| 20260509153705 | 61 | 260 | 9.0 | 10.0 | 0.00 | 0.21 | 0.04 | 80 | 1007.1 |
| 20260509153205 | 61 | 247 | 5.0 | 8.0 | 0.00 | 0.21 | 0.04 | 80 | 1007.1 |
| 20260509152705 | 62 | 243 | 5.0 | 8.0 | 0.00 | 0.21 | 0.04 | 81 | 1007.1 |
| 20260509152205 | 61 | 281 | 3.0 | 8.0 | 0.00 | 0.21 | 0.04 | 85 | 1007.1 |
| 20260509151704 | 59 | 307 | 3.0 | 9.0 | 0.00 | 0.21 | 0.04 | 86 | 1007.1 |
| 20260509151205 | 58 | 274 | 7.0 | 9.0 | 0.00 | 0.21 | 0.04 | 87 | 1007.1 |
| 20260509145705 | 58 | 165 | 5.0 | 8.0 | 0.00 | 0.21 | 0.04 | 89 | 1007.1 |
| 20260509145205 | 58 | 225 | 7.0 | 8.0 | 0.00 | 0.21 | 0.04 | 90 | 1007.1 |
| 20260509144705 | 58 | 200 | 5.0 | 9.0 | 0.00 | 0.21 | 0.04 | 91 | 1007.1 |
| 20260509144204 | 57 | 243 | 6.0 | 10.0 | 0.00 | 0.21 | 0.04 | 90 | 1007.1 |
| 20260509143705 | 57 | 255 | 6.0 | 10.0 | 0.00 | 0.21 | 0.04 | 90 | 1007.1 |
| 20260509143204 | 57 | 272 | 4.0 | 10.0 | 0.00 | 0.21 | 0.04 | 92 | 1007.1 |
| 20260509142704 | 57 | 263 | 5.0 | 9.0 | 0.00 | 0.21 | 0.04 | 92 | 1007.1 |
| 20260509141705 | 57 | 255 | 4.0 | 8.0 | 0.00 | 0.21 | 0.04 | 94 | 1007.1 |
| 20260509141204 | 57 | 252 | 3.0 | 8.0 | 0.00 | 0.21 | 0.04 | 95 | 1007.1 |
| 20260509140204 | 57 | 249 | 5.0 | 8.0 | 0.00 | 0.21 | 0.04 | 95 | 1007.1 |
| 20260509135704 | 56 | 199 | 2.0 | 10.0 | 0.00 | 0.21 | 0.04 | 96 | 1007.1 |
| 20260509134704 | 55 | 237 | 6.0 | 10.0 | 0.00 | 0.21 | 0.04 | 97 | 1007.1 |
| 20260509134204 | 55 | 9 | 3.0 | 9.0 | 0.00 | 0.21 | 0.04 | 99 | 1007.1 |
| 20260509133704 | 55 | 166 | 4.0 | 8.0 | 0.00 | 0.21 | 0.04 | 99 | 1007.1 |
| 20260509133205 | 55 | 212 | 5.0 | 8.0 | 0.00 | 0.21 | 0.04 | 99 | 1007.1 |
| 20260509132705 | 55 | 226 | 2.0 | 6.0 | 0.00 | 0.21 | 0.04 | 99 | 1007.1 |
| 20260509131705 | 55 | 200 | 1.0 | 7.0 | 0.00 | 0.21 | 0.04 | 99 | 1007.1 |
| 20260509131205 | 54 | 239 | 2.0 | 7.0 | 0.00 | 0.22 | 0.04 | 99 | 1007.1 |
| 20260509130704 | 54 | 253 | 2.0 | 7.0 | 0.00 | 0.22 | 0.04 | 99 | 1007.1 |
| 20260509125705 | 54 | 164 | 0.0 | 6.0 | 0.00 | 0.23 | 0.04 | 99 | 1007.1 |
| 20260509125204 | 54 | 179 | 1.0 | 6.0 | 0.00 | 0.23 | 0.04 | 99 | 1007.1 |
| 20260509124704 | 54 | 194 | 1.0 | 7.0 | 0.00 | 0.23 | 0.04 | 99 | 1007.5 |
| 20260509124204 | 54 | 230 | 2.0 | 8.0 | 0.00 | 0.23 | 0.04 | 99 | 1007.5 |
| 20260509123704 | 54 | 252 | 2.0 | 8.0 | 0.00 | 0.23 | 0.04 | 99 | 1007.5 |
| 20260509123204 | 54 | 153 | 6.0 | 8.0 | 0.00 | 0.23 | 0.04 | 99 | 1007.5 |
| 20260509122704 | 54 | 227 | 2.0 | 6.0 | 0.00 | 0.23 | 0.04 | 99 | 1007.5 |
| 20260509122205 | 54 | 184 | 0.0 | 6.0 | 0.00 | 0.23 | 0.04 | 99 | 1007.5 |
| 20260509121704 | 53 | 237 | 3.0 | 5.0 | 0.00 | 0.23 | 0.04 | 99 | 1007.5 |
| 20260509120704 | 53 | 249 | 0.0 | 3.0 | 0.00 | 0.23 | 0.04 | 99 | 1007.5 |
| 20260509120204 | 53 | 268 | 1.0 | 3.0 | 0.00 | 0.23 | 0.04 | 99 | 1007.5 |
| 20260509115704 | 53 | 189 | 1.0 | 3.0 | 0.00 | 0.23 | 0.04 | 99 | 1007.5 |
| 20260509115205 | 53 | 225 | 0.0 | 3.0 | 0.00 | 0.23 | 0.04 | 99 | 1007.5 |
| 20260509114705 | 53 | 152 | 0.0 | 3.0 | 0.00 | 0.23 | 0.04 | 99 | 1007.7 |
| 20260509114205 | 52 | 206 | 0.0 | 3.0 | 0.00 | 0.23 | 0.04 | 99 | 1007.5 |
| 20260509113704 | 52 | 320 | 0.0 | 6.0 | 0.00 | 0.23 | 0.04 | 99 | 1007.5 |
| 20260509113204 | 52 | 134 | 0.0 | 6.0 | 0.00 | 0.23 | 0.04 | 99 | 1007.5 |
| 20260509112704 | 52 | 162 | 1.0 | 6.0 | 0.00 | 0.23 | 0.04 | 99 | 1007.5 |
| 20260509111704 | 52 | 192 | 0.0 | 1.0 | 0.00 | 0.23 | 0.04 | 99 | 1007.5 |
| 20260509111204 | 52 | 160 | 0.0 | 3.0 | 0.00 | 0.23 | 0.04 | 99 | 1007.5 |
| 20260509110704 | 52 | 170 | 0.0 | 3.0 | 0.00 | 0.23 | 0.04 | 99 | 1007.5 |
| 20260509110204 | 52 | 179 | 1.0 | 3.0 | 0.00 | 0.23 | 0.04 | 99 | 1007.5 |
| 20260509105704 | 52 | 172 | 0.0 | 0.0 | 0.00 | 0.23 | 0.04 | 99 | 1007.5 |
| 20260509105205 | 52 | 149 | 0.0 | 0.0 | 0.00 | 0.23 | 0.04 | 99 | 1007.5 |
| 20260509104704 | 52 | 140 | 0.0 | 2.0 | 0.00 | 0.23 | 0.04 | 99 | 1007.1 |
| 20260509104204 | 52 | 167 | 0.0 | 2.0 | 0.00 | 0.23 | 0.04 | 99 | 1007.1 |
| 20260509103704 | 52 | 161 | 1.0 | 2.0 | 0.00 | 0.23 | 0.04 | 99 | 1007.1 |
| 20260509103204 | 52 | 159 | 0.0 | 3.0 | 0.00 | 0.23 | 0.04 | 99 | 1007.5 |
| 20260509102704 | 52 | 141 | 0.0 | 3.0 | 0.00 | 0.23 | 0.04 | 99 | 1007.1 |
| 20260509102204 | 52 | 168 | 0.0 | 3.0 | 0.00 | 0.23 | 0.04 | 99 | 1007.1 |
| 20260509101704 | 52 | 160 | 0.0 | 3.0 | 0.00 | 0.23 | 0.04 | 99 | 1007.1 |
| 20260509101204 | 52 | 118 | 0.0 | 3.0 | 0.00 | 0.23 | 0.04 | 99 | 1007.4 |
| 20260509100704 | 52 | 181 | 2.0 | 3.0 | 0.00 | 0.23 | 0.04 | 99 | 1007.5 |
| 20260509100204 | 52 | 162 | 2.0 | 3.0 | 0.00 | 0.23 | 0.04 | 99 | 1007.5 |
| 20260509095704 | 52 | 162 | 3.0 | 3.0 | 0.00 | 0.23 | 0.04 | 99 | 1007.5 |
| 20260509095204 | 52 | 152 | 0.0 | 3.0 | 0.00 | 0.23 | 0.04 | 99 | 1007.5 |
| 20260509094704 | 52 | 162 | 0.0 | 5.0 | 0.00 | 0.23 | 0.04 | 99 | 1007.5 |
| 20260509094205 | 52 | 163 | 1.0 | 5.0 | 0.00 | 0.23 | 0.04 | 99 | 1007.5 |
| 20260509093704 | 52 | 148 | 0.0 | 6.0 | 0.00 | 0.23 | 0.04 | 99 | 1007.5 |
| 20260509093204 | 52 | 172 | 1.0 | 6.0 | 0.00 | 0.23 | 0.04 | 99 | 1007.5 |
| 20260509091704 | 52 | 156 | 0.0 | 5.0 | 0.00 | 0.23 | 0.04 | 99 | 1007.8 |
| 20260509091204 | 52 | 198 | 2.0 | 5.0 | 0.00 | 0.23 | 0.04 | 99 | 1007.8 |
| 20260509090704 | 52 | 213 | 1.0 | 6.0 | 0.00 | 0.23 | 0.04 | 99 | 1007.8 |
| 20260509085204 | 52 | 199 | 1.0 | 6.0 | 0.00 | 0.23 | 0.04 | 99 | 1007.8 |
| 20260509084705 | 52 | 171 | 2.0 | 3.0 | 0.00 | 0.23 | 0.04 | 99 | 1007.8 |
| 20260509084204 | 52 | 216 | 1.0 | 3.0 | 0.00 | 0.23 | 0.04 | 99 | 1008.1 |
| 20260509083705 | 51 | 159 | 0.0 | 3.0 | 0.00 | 0.23 | 0.04 | 99 | 1007.8 |
| 20260509082704 | 51 | 166 | 2.0 | 5.0 | 0.00 | 0.23 | 0.04 | 99 | 1007.8 |
| 20260509082205 | 51 | 175 | 3.0 | 8.0 | 0.00 | 0.23 | 0.04 | 99 | 1007.8 |
| 20260509081704 | 51 | 138 | 2.0 | 8.0 | 0.01 | 0.23 | 0.04 | 99 | 1007.8 |
| 20260509080704 | 51 | 145 | 3.0 | 5.0 | 0.01 | 0.23 | 0.04 | 99 | 1008.1 |
| 20260509080204 | 51 | 183 | 1.0 | 6.0 | 0.01 | 0.23 | 0.04 | 99 | 1007.8 |
| 20260509075704 | 51 | 193 | 2.0 | 6.0 | 0.01 | 0.23 | 0.04 | 99 | 1008.1 |
| 20260509075204 | 51 | 174 | 3.0 | 6.0 | 0.01 | 0.23 | 0.04 | 99 | 1008.1 |
| 20260509074704 | 51 | 129 | 4.0 | 6.0 | 0.01 | 0.23 | 0.04 | 99 | 1008.1 |
| 20260509074205 | 51 | 229 | 1.0 | 6.0 | 0.01 | 0.23 | 0.04 | 99 | 1007.8 |
| 20260509073704 | 51 | 204 | 1.0 | 6.0 | 0.01 | 0.23 | 0.04 | 99 | 1008.1 |
| 20260509073204 | 51 | 183 | 4.0 | 6.0 | 0.01 | 0.23 | 0.04 | 99 | 1008.1 |
| 20260509072705 | 51 | 170 | 2.0 | 6.0 | 0.01 | 0.23 | 0.04 | 99 | 1008.1 |
| 20260509072205 | 51 | 192 | 3.0 | 6.0 | 0.01 | 0.23 | 0.04 | 99 | 1008.1 |
| 20260509071705 | 51 | 163 | 3.0 | 6.0 | 0.00 | 0.22 | 0.03 | 99 | 1008.1 |
| 20260509071204 | 51 | 214 | 2.0 | 6.0 | 0.00 | 0.22 | 0.03 | 99 | 1008.1 |
| 20260509070704 | 51 | 234 | 2.0 | 6.0 | 0.00 | 0.22 | 0.03 | 99 | 1008.4 |
| 20260509070205 | 51 | 189 | 4.0 | 6.0 | 0.00 | 0.22 | 0.03 | 99 | 1008.1 |